sensor_id;sensor_type;location;lat;lon;timestamp;temperature;humidity
15765;DHT22;7983;50.744;7.086;2022-09-28T00:01:23;11.30;99.90
15765;DHT22;7983;50.744;7.086;2022-09-28T00:03:53;11.30;99.90
15765;DHT22;7983;50.744;7.086;2022-09-28T00:06:26;11.30;99.90
15765;DHT22;7983;50.744;7.086;2022-09-28T00:08:52;11.30;99.90
15765;DHT22;7983;50.744;7.086;2022-09-28T00:11:19;11.20;99.90
15765;DHT22;7983;50.744;7.086;2022-09-28T00:13:48;11.20;99.90
15765;DHT22;7983;50.744;7.086;2022-09-28T00:16:20;11.20;99.90
15765;DHT22;7983;50.744;7.086;2022-09-28T00:18:45;11.20;99.90
15765;DHT22;7983;50.744;7.086;2022-09-28T00:21:15;11.20;99.90
15765;DHT22;7983;50.744;7.086;2022-09-28T00:23:41;11.20;99.90
15765;DHT22;7983;50.744;7.086;2022-09-28T00:26:29;11.20;99.90
15765;DHT22;7983;50.744;7.086;2022-09-28T00:28:57;11.20;99.90
15765;DHT22;7983;50.744;7.086;2022-09-28T00:31:24;11.20;99.90
15765;DHT22;7983;50.744;7.086;2022-09-28T00:33:51;11.20;99.90
15765;DHT22;7983;50.744;7.086;2022-09-28T00:36:18;11.20;99.90
15765;DHT22;7983;50.744;7.086;2022-09-28T00:38:45;11.20;99.90
15765;DHT22;7983;50.744;7.086;2022-09-28T00:41:14;11.10;99.90
15765;DHT22;7983;50.744;7.086;2022-09-28T00:43:43;11.10;99.90
15765;DHT22;7983;50.744;7.086;2022-09-28T00:46:18;11.20;99.90
15765;DHT22;7983;50.744;7.086;2022-09-28T00:48:51;11.20;99.90
15765;DHT22;7983;50.744;7.086;2022-09-28T00:51:25;11.10;99.90
15765;DHT22;7983;50.744;7.086;2022-09-28T00:53:52;11.20;99.90
15765;DHT22;7983;50.744;7.086;2022-09-28T00:56:26;11.10;99.90
15765;DHT22;7983;50.744;7.086;2022-09-28T00:58:57;11.10;99.90
15765;DHT22;7983;50.744;7.086;2022-09-28T01:01:26;11.10;99.90
15765;DHT22;7983;50.744;7.086;2022-09-28T01:03:52;11.10;99.90
15765;DHT22;7983;50.744;7.086;2022-09-28T01:06:24;11.10;99.90
15765;DHT22;7983;50.744;7.086;2022-09-28T01:08:54;11.10;99.90
15765;DHT22;7983;50.744;7.086;2022-09-28T01:11:20;11.10;99.90
15765;DHT22;7983;50.744;7.086;2022-09-28T01:13:47;11.00;99.90
15765;DHT22;7983;50.744;7.086;2022-09-28T01:27:43;11.00;99.90
15765;DHT22;7983;50.744;7.086;2022-09-28T01:30:19;10.90;99.90
15765;DHT22;7983;50.744;7.086;2022-09-28T01:33:00;10.90;99.90
15765;DHT22;7983;50.744;7.086;2022-09-28T01:35:35;10.90;99.90
15765;DHT22;7983;50.744;7.086;2022-09-28T01:38:08;10.90;99.90
15765;DHT22;7983;50.744;7.086;2022-09-28T01:40:42;10.90;99.90
15765;DHT22;7983;50.744;7.086;2022-09-28T01:43:45;10.90;99.90
15765;DHT22;7983;50.744;7.086;2022-09-28T01:46:11;10.90;99.90
15765;DHT22;7983;50.744;7.086;2022-09-28T01:48:42;10.90;99.90
15765;DHT22;7983;50.744;7.086;2022-09-28T01:51:18;10.90;99.90
15765;DHT22;7983;50.744;7.086;2022-09-28T01:53:52;10.90;99.90
15765;DHT22;7983;50.744;7.086;2022-09-28T01:56:33;10.90;99.90
15765;DHT22;7983;50.744;7.086;2022-09-28T01:59:24;10.90;99.90
15765;DHT22;7983;50.744;7.086;2022-09-28T02:02:04;10.90;99.90
15765;DHT22;7983;50.744;7.086;2022-09-28T02:07:07;10.90;99.90
15765;DHT22;7983;50.744;7.086;2022-09-28T02:09:41;10.90;99.90
15765;DHT22;7983;50.744;7.086;2022-09-28T02:12:19;10.90;99.90
15765;DHT22;7983;50.744;7.086;2022-09-28T02:14:48;10.90;99.90
15765;DHT22;7983;50.744;7.086;2022-09-28T02:17:14;10.90;99.90
15765;DHT22;7983;50.744;7.086;2022-09-28T02:19:41;10.90;99.90
15765;DHT22;7983;50.744;7.086;2022-09-28T02:25:16;10.90;99.90
15765;DHT22;7983;50.744;7.086;2022-09-28T02:30:18;10.90;99.90
15765;DHT22;7983;50.744;7.086;2022-09-28T02:32:46;10.90;99.90
15765;DHT22;7983;50.744;7.086;2022-09-28T02:35:15;10.90;99.90
15765;DHT22;7983;50.744;7.086;2022-09-28T02:37:42;10.90;99.90
15765;DHT22;7983;50.744;7.086;2022-09-28T02:46:00;10.80;99.90
15765;DHT22;7983;50.744;7.086;2022-09-28T03:05:17;10.60;99.90
15765;DHT22;7983;50.744;7.086;2022-09-28T03:10:57;10.50;99.90
15765;DHT22;7983;50.744;7.086;2022-09-28T03:13:27;10.50;99.90
15765;DHT22;7983;50.744;7.086;2022-09-28T03:16:09;10.50;99.90
15765;DHT22;7983;50.744;7.086;2022-09-28T03:18:35;10.50;99.90
15765;DHT22;7983;50.744;7.086;2022-09-28T03:21:05;10.50;99.90
15765;DHT22;7983;50.744;7.086;2022-09-28T03:23:33;10.50;99.90
15765;DHT22;7983;50.744;7.086;2022-09-28T03:25:59;10.50;99.90
15765;DHT22;7983;50.744;7.086;2022-09-28T03:28:24;10.50;99.90
15765;DHT22;7983;50.744;7.086;2022-09-28T03:30:51;10.50;99.90
15765;DHT22;7983;50.744;7.086;2022-09-28T03:33:17;10.50;99.90
15765;DHT22;7983;50.744;7.086;2022-09-28T03:35:48;10.60;99.90
15765;DHT22;7983;50.744;7.086;2022-09-28T03:38:17;10.60;99.90
15765;DHT22;7983;50.744;7.086;2022-09-28T03:40:51;10.60;99.90
15765;DHT22;7983;50.744;7.086;2022-09-28T03:43:16;10.60;99.90
15765;DHT22;7983;50.744;7.086;2022-09-28T03:45:49;10.60;99.90
15765;DHT22;7983;50.744;7.086;2022-09-28T03:48:15;10.60;99.90
15765;DHT22;7983;50.744;7.086;2022-09-28T03:50:40;10.60;99.90
15765;DHT22;7983;50.744;7.086;2022-09-28T03:53:08;10.70;99.90
15765;DHT22;7983;50.744;7.086;2022-09-28T03:55:36;10.60;99.90
15765;DHT22;7983;50.744;7.086;2022-09-28T03:58:05;10.60;99.90
15765;DHT22;7983;50.744;7.086;2022-09-28T04:00:30;10.60;99.90
15765;DHT22;7983;50.744;7.086;2022-09-28T04:02:56;10.60;99.90
15765;DHT22;7983;50.744;7.086;2022-09-28T04:05:22;10.60;99.90
15765;DHT22;7983;50.744;7.086;2022-09-28T04:07:49;10.60;99.90
15765;DHT22;7983;50.744;7.086;2022-09-28T04:10:18;10.60;99.90
15765;DHT22;7983;50.744;7.086;2022-09-28T04:12:43;10.60;99.90
15765;DHT22;7983;50.744;7.086;2022-09-28T04:15:10;10.60;99.90
15765;DHT22;7983;50.744;7.086;2022-09-28T04:17:35;10.60;99.90
15765;DHT22;7983;50.744;7.086;2022-09-28T04:20:01;10.60;99.90
15765;DHT22;7983;50.744;7.086;2022-09-28T04:22:28;10.60;99.90
15765;DHT22;7983;50.744;7.086;2022-09-28T04:24:53;10.60;99.90
15765;DHT22;7983;50.744;7.086;2022-09-28T04:27:19;10.50;99.90
15765;DHT22;7983;50.744;7.086;2022-09-28T04:30:03;10.50;99.90
15765;DHT22;7983;50.744;7.086;2022-09-28T04:32:31;10.50;99.90
15765;DHT22;7983;50.744;7.086;2022-09-28T04:34:59;10.40;99.90
15765;DHT22;7983;50.744;7.086;2022-09-28T04:37:27;10.40;99.90
15765;DHT22;7983;50.744;7.086;2022-09-28T04:39:55;10.40;99.90
15765;DHT22;7983;50.744;7.086;2022-09-28T04:42:21;10.40;99.90
15765;DHT22;7983;50.744;7.086;2022-09-28T04:44:46;10.30;99.90
15765;DHT22;7983;50.744;7.086;2022-09-28T04:47:12;10.30;99.90
15765;DHT22;7983;50.744;7.086;2022-09-28T04:49:41;10.30;99.90
15765;DHT22;7983;50.744;7.086;2022-09-28T04:52:07;10.30;99.90
15765;DHT22;7983;50.744;7.086;2022-09-28T04:54:35;10.30;99.90
15765;DHT22;7983;50.744;7.086;2022-09-28T04:57:03;10.30;99.90
15765;DHT22;7983;50.744;7.086;2022-09-28T04:59:32;10.30;99.90
15765;DHT22;7983;50.744;7.086;2022-09-28T05:01:58;10.30;99.90
15765;DHT22;7983;50.744;7.086;2022-09-28T05:04:24;10.30;99.90
15765;DHT22;7983;50.744;7.086;2022-09-28T05:06:52;10.30;99.90
15765;DHT22;7983;50.744;7.086;2022-09-28T05:09:18;10.30;99.90
15765;DHT22;7983;50.744;7.086;2022-09-28T05:11:43;10.30;99.90
15765;DHT22;7983;50.744;7.086;2022-09-28T05:14:12;10.30;99.90
15765;DHT22;7983;50.744;7.086;2022-09-28T05:16:40;10.30;99.90
15765;DHT22;7983;50.744;7.086;2022-09-28T05:19:09;10.30;99.90
15765;DHT22;7983;50.744;7.086;2022-09-28T05:21:34;10.30;99.90
15765;DHT22;7983;50.744;7.086;2022-09-28T05:24:00;10.30;99.90
15765;DHT22;7983;50.744;7.086;2022-09-28T05:26:30;10.30;99.90
15765;DHT22;7983;50.744;7.086;2022-09-28T05:28:55;10.40;99.90
15765;DHT22;7983;50.744;7.086;2022-09-28T05:31:23;10.30;99.90
15765;DHT22;7983;50.744;7.086;2022-09-28T05:33:51;10.40;99.90
15765;DHT22;7983;50.744;7.086;2022-09-28T05:36:19;10.40;99.90
15765;DHT22;7983;50.744;7.086;2022-09-28T05:38:48;10.40;99.90
15765;DHT22;7983;50.744;7.086;2022-09-28T05:41:13;10.40;99.90
15765;DHT22;7983;50.744;7.086;2022-09-28T05:43:41;10.40;99.90
15765;DHT22;7983;50.744;7.086;2022-09-28T05:46:10;10.50;99.90
15765;DHT22;7983;50.744;7.086;2022-09-28T05:48:36;10.40;99.90
15765;DHT22;7983;50.744;7.086;2022-09-28T05:51:04;10.40;99.90
15765;DHT22;7983;50.744;7.086;2022-09-28T05:53:29;10.40;99.90
15765;DHT22;7983;50.744;7.086;2022-09-28T05:55:58;10.50;99.90
15765;DHT22;7983;50.744;7.086;2022-09-28T05:58:24;10.50;99.90
15765;DHT22;7983;50.744;7.086;2022-09-28T06:00:56;10.50;99.90
15765;DHT22;7983;50.744;7.086;2022-09-28T06:03:27;10.50;99.90
15765;DHT22;7983;50.744;7.086;2022-09-28T06:05:53;10.50;99.90
15765;DHT22;7983;50.744;7.086;2022-09-28T06:08:19;10.60;99.90
15765;DHT22;7983;50.744;7.086;2022-09-28T06:10:44;10.50;99.90
15765;DHT22;7983;50.744;7.086;2022-09-28T06:13:10;10.50;99.90
15765;DHT22;7983;50.744;7.086;2022-09-28T06:15:41;10.50;99.90
15765;DHT22;7983;50.744;7.086;2022-09-28T06:18:12;10.60;99.90
15765;DHT22;7983;50.744;7.086;2022-09-28T06:20:39;10.60;99.90
15765;DHT22;7983;50.744;7.086;2022-09-28T06:23:06;10.60;99.90
15765;DHT22;7983;50.744;7.086;2022-09-28T06:25:32;10.60;99.90
15765;DHT22;7983;50.744;7.086;2022-09-28T06:28:03;10.60;99.90
15765;DHT22;7983;50.744;7.086;2022-09-28T06:30:31;10.50;99.90
15765;DHT22;7983;50.744;7.086;2022-09-28T06:32:59;10.60;99.90
15765;DHT22;7983;50.744;7.086;2022-09-28T06:35:26;10.60;99.90
15765;DHT22;7983;50.744;7.086;2022-09-28T06:37:52;10.60;99.90
15765;DHT22;7983;50.744;7.086;2022-09-28T06:40:19;10.60;99.90
15765;DHT22;7983;50.744;7.086;2022-09-28T06:43:14;10.70;99.90
15765;DHT22;7983;50.744;7.086;2022-09-28T06:45:41;10.70;99.90
15765;DHT22;7983;50.744;7.086;2022-09-28T06:48:12;10.60;99.90
15765;DHT22;7983;50.744;7.086;2022-09-28T06:50:40;10.70;99.90
15765;DHT22;7983;50.744;7.086;2022-09-28T06:53:07;10.60;99.90
15765;DHT22;7983;50.744;7.086;2022-09-28T06:55:34;10.70;99.90
15765;DHT22;7983;50.744;7.086;2022-09-28T06:58:08;10.70;99.90
15765;DHT22;7983;50.744;7.086;2022-09-28T07:00:36;10.70;99.90
15765;DHT22;7983;50.744;7.086;2022-09-28T07:03:06;10.80;99.90
15765;DHT22;7983;50.744;7.086;2022-09-28T07:05:34;10.80;99.90
15765;DHT22;7983;50.744;7.086;2022-09-28T07:08:02;10.90;99.90
15765;DHT22;7983;50.744;7.086;2022-09-28T07:10:29;10.90;99.90
15765;DHT22;7983;50.744;7.086;2022-09-28T07:12:59;10.90;99.90
15765;DHT22;7983;50.744;7.086;2022-09-28T07:15:30;10.90;99.90
15765;DHT22;7983;50.744;7.086;2022-09-28T07:18:03;10.90;99.90
15765;DHT22;7983;50.744;7.086;2022-09-28T07:20:30;10.90;99.90
15765;DHT22;7983;50.744;7.086;2022-09-28T07:22:59;11.00;99.90
15765;DHT22;7983;50.744;7.086;2022-09-28T07:25:25;11.00;99.90
15765;DHT22;7983;50.744;7.086;2022-09-28T07:27:55;11.10;99.90
15765;DHT22;7983;50.744;7.086;2022-09-28T07:30:22;11.10;99.90
15765;DHT22;7983;50.744;7.086;2022-09-28T07:32:53;11.10;99.90
15765;DHT22;7983;50.744;7.086;2022-09-28T07:35:19;11.20;99.90
15765;DHT22;7983;50.744;7.086;2022-09-28T07:37:47;11.20;99.90
15765;DHT22;7983;50.744;7.086;2022-09-28T07:40:13;11.20;99.90
15765;DHT22;7983;50.744;7.086;2022-09-28T07:43:07;11.20;99.90
15765;DHT22;7983;50.744;7.086;2022-09-28T07:45:35;11.30;99.90
15765;DHT22;7983;50.744;7.086;2022-09-28T07:48:03;11.30;99.90
15765;DHT22;7983;50.744;7.086;2022-09-28T07:50:31;11.40;99.90
15765;DHT22;7983;50.744;7.086;2022-09-28T07:52:59;11.40;99.90
15765;DHT22;7983;50.744;7.086;2022-09-28T07:55:25;11.40;99.90
15765;DHT22;7983;50.744;7.086;2022-09-28T07:57:57;11.50;99.90
15765;DHT22;7983;50.744;7.086;2022-09-28T08:00:29;11.50;99.90
15765;DHT22;7983;50.744;7.086;2022-09-28T08:03:03;11.60;99.90
15765;DHT22;7983;50.744;7.086;2022-09-28T08:05:28;11.60;99.90
15765;DHT22;7983;50.744;7.086;2022-09-28T08:08:02;11.70;99.90
15765;DHT22;7983;50.744;7.086;2022-09-28T08:10:28;11.70;99.90
15765;DHT22;7983;50.744;7.086;2022-09-28T08:12:55;11.70;99.90
15765;DHT22;7983;50.744;7.086;2022-09-28T08:15:21;11.80;99.90
15765;DHT22;7983;50.744;7.086;2022-09-28T08:17:47;11.80;99.90
15765;DHT22;7983;50.744;7.086;2022-09-28T08:20:13;11.90;99.90
15765;DHT22;7983;50.744;7.086;2022-09-28T08:23:04;11.90;99.90
15765;DHT22;7983;50.744;7.086;2022-09-28T08:25:33;12.00;99.90
15765;DHT22;7983;50.744;7.086;2022-09-28T08:28:04;12.00;99.90
15765;DHT22;7983;50.744;7.086;2022-09-28T08:32:57;12.10;99.90
15765;DHT22;7983;50.744;7.086;2022-09-28T08:35:23;12.10;99.90
15765;DHT22;7983;50.744;7.086;2022-09-28T08:37:52;12.20;99.90
15765;DHT22;7983;50.744;7.086;2022-09-28T08:40:24;12.20;99.90
15765;DHT22;7983;50.744;7.086;2022-09-28T08:43:00;12.20;99.90
15765;DHT22;7983;50.744;7.086;2022-09-28T08:45:28;12.20;99.90
15765;DHT22;7983;50.744;7.086;2022-09-28T08:48:09;12.20;99.90
15765;DHT22;7983;50.744;7.086;2022-09-28T08:51:06;12.20;99.90
15765;DHT22;7983;50.744;7.086;2022-09-28T08:53:41;12.20;99.90
15765;DHT22;7983;50.744;7.086;2022-09-28T08:56:25;12.30;99.90
15765;DHT22;7983;50.744;7.086;2022-09-28T08:58:58;12.40;99.90
15765;DHT22;7983;50.744;7.086;2022-09-28T09:01:34;12.40;99.90
15765;DHT22;7983;50.744;7.086;2022-09-28T09:04:03;12.50;99.90
15765;DHT22;7983;50.744;7.086;2022-09-28T09:16:45;12.80;99.90
15765;DHT22;7983;50.744;7.086;2022-09-28T09:25:20;13.10;99.90
15765;DHT22;7983;50.744;7.086;2022-09-28T09:41:46;14.30;99.90
15765;DHT22;7983;50.744;7.086;2022-09-28T09:47:16;14.50;99.90
15765;DHT22;7983;50.744;7.086;2022-09-28T09:52:24;14.50;99.90
15765;DHT22;7983;50.744;7.086;2022-09-28T09:54:54;14.50;99.90
15765;DHT22;7983;50.744;7.086;2022-09-28T10:00:03;14.50;99.90
15765;DHT22;7983;50.744;7.086;2022-09-28T10:02:33;14.60;99.90
15765;DHT22;7983;50.744;7.086;2022-09-28T10:10:37;14.80;99.90
15765;DHT22;7983;50.744;7.086;2022-09-28T10:13:05;14.80;99.90
15765;DHT22;7983;50.744;7.086;2022-09-28T10:15:33;14.80;99.90
15765;DHT22;7983;50.744;7.086;2022-09-28T10:18:10;14.80;99.90
15765;DHT22;7983;50.744;7.086;2022-09-28T10:20:37;14.80;99.90
15765;DHT22;7983;50.744;7.086;2022-09-28T10:23:22;14.80;99.90
15765;DHT22;7983;50.744;7.086;2022-09-28T10:25:52;14.80;99.90
15765;DHT22;7983;50.744;7.086;2022-09-28T10:28:29;14.80;99.90
15765;DHT22;7983;50.744;7.086;2022-09-28T10:30:57;14.80;99.90
15765;DHT22;7983;50.744;7.086;2022-09-28T10:33:31;14.90;99.90
15765;DHT22;7983;50.744;7.086;2022-09-28T10:36:03;14.90;99.90
15765;DHT22;7983;50.744;7.086;2022-09-28T10:38:33;15.00;99.90
15765;DHT22;7983;50.744;7.086;2022-09-28T10:41:10;15.10;99.90
15765;DHT22;7983;50.744;7.086;2022-09-28T10:43:57;15.20;99.90
15765;DHT22;7983;50.744;7.086;2022-09-28T10:46:33;15.30;99.90
15765;DHT22;7983;50.744;7.086;2022-09-28T10:49:02;15.30;99.90
15765;DHT22;7983;50.744;7.086;2022-09-28T10:51:46;15.30;99.90
15765;DHT22;7983;50.744;7.086;2022-09-28T10:54:20;15.20;99.90
15765;DHT22;7983;50.744;7.086;2022-09-28T10:56:47;15.20;99.90
15765;DHT22;7983;50.744;7.086;2022-09-28T10:59:39;15.10;99.90
15765;DHT22;7983;50.744;7.086;2022-09-28T11:02:24;15.00;99.90
15765;DHT22;7983;50.744;7.086;2022-09-28T11:04:58;15.00;99.90
15765;DHT22;7983;50.744;7.086;2022-09-28T11:07:27;15.00;99.90
15765;DHT22;7983;50.744;7.086;2022-09-28T11:09:55;15.00;99.90
15765;DHT22;7983;50.744;7.086;2022-09-28T11:12:40;15.00;99.90
15765;DHT22;7983;50.744;7.086;2022-09-28T11:15:21;15.00;99.90
15765;DHT22;7983;50.744;7.086;2022-09-28T11:17:49;15.00;99.90
15765;DHT22;7983;50.744;7.086;2022-09-28T11:32:56;15.00;99.90
15765;DHT22;7983;50.744;7.086;2022-09-28T11:41:10;16.20;99.90
15765;DHT22;7983;50.744;7.086;2022-09-28T11:52:27;16.90;99.90
15765;DHT22;7983;50.744;7.086;2022-09-28T11:57:41;16.80;99.90
15765;DHT22;7983;50.744;7.086;2022-09-28T12:00:18;16.70;99.90
15765;DHT22;7983;50.744;7.086;2022-09-28T12:02:50;16.60;99.90
15765;DHT22;7983;50.744;7.086;2022-09-28T12:08:02;16.50;99.90
15765;DHT22;7983;50.744;7.086;2022-09-28T12:13:03;16.30;99.90
15765;DHT22;7983;50.744;7.086;2022-09-28T12:15:48;16.30;99.90
15765;DHT22;7983;50.744;7.086;2022-09-28T12:18:43;16.20;99.90
15765;DHT22;7983;50.744;7.086;2022-09-28T12:23:42;16.00;99.90
15765;DHT22;7983;50.744;7.086;2022-09-28T12:26:53;15.90;99.90
15765;DHT22;7983;50.744;7.086;2022-09-28T12:29:21;15.90;99.90
15765;DHT22;7983;50.744;7.086;2022-09-28T12:31:55;15.80;99.90
15765;DHT22;7983;50.744;7.086;2022-09-28T12:34:22;15.80;99.90
15765;DHT22;7983;50.744;7.086;2022-09-28T12:37:13;15.70;99.90
15765;DHT22;7983;50.744;7.086;2022-09-28T12:48:42;15.60;99.90
15765;DHT22;7983;50.744;7.086;2022-09-28T12:59:38;15.40;99.90
15765;DHT22;7983;50.744;7.086;2022-09-28T13:11:16;15.10;99.90
15765;DHT22;7983;50.744;7.086;2022-09-28T13:25:29;15.00;99.90
15765;DHT22;7983;50.744;7.086;2022-09-28T13:28:04;15.00;99.90
15765;DHT22;7983;50.744;7.086;2022-09-28T13:30:34;15.10;99.90
15765;DHT22;7983;50.744;7.086;2022-09-28T13:33:04;15.10;99.90
15765;DHT22;7983;50.744;7.086;2022-09-28T13:35:31;15.10;99.90
15765;DHT22;7983;50.744;7.086;2022-09-28T13:43:58;15.10;99.90
15765;DHT22;7983;50.744;7.086;2022-09-28T13:55:15;15.00;99.90
15765;DHT22;7983;50.744;7.086;2022-09-28T13:57:55;15.00;99.90
15765;DHT22;7983;50.744;7.086;2022-09-28T14:02:52;15.00;99.90
15765;DHT22;7983;50.744;7.086;2022-09-28T14:16:28;14.90;99.90
15765;DHT22;7983;50.744;7.086;2022-09-28T14:19:02;14.90;99.90
15765;DHT22;7983;50.744;7.086;2022-09-28T14:25:05;14.90;99.90
15765;DHT22;7983;50.744;7.086;2022-09-28T14:32:33;14.90;99.90
15765;DHT22;7983;50.744;7.086;2022-09-28T14:35:05;15.00;99.90
15765;DHT22;7983;50.744;7.086;2022-09-28T14:37:37;15.00;99.90
15765;DHT22;7983;50.744;7.086;2022-09-28T14:40:28;15.00;99.90
15765;DHT22;7983;50.744;7.086;2022-09-28T14:48:55;15.20;99.90
15765;DHT22;7983;50.744;7.086;2022-09-28T14:56:26;15.40;99.90
15765;DHT22;7983;50.744;7.086;2022-09-28T14:58:56;15.50;99.90
15765;DHT22;7983;50.744;7.086;2022-09-28T15:01:23;15.60;99.90
15765;DHT22;7983;50.744;7.086;2022-09-28T15:03:58;15.60;99.90
15765;DHT22;7983;50.744;7.086;2022-09-28T15:06:25;15.70;99.90
15765;DHT22;7983;50.744;7.086;2022-09-28T15:08:53;15.70;99.90
15765;DHT22;7983;50.744;7.086;2022-09-28T15:11:21;15.60;99.90
15765;DHT22;7983;50.744;7.086;2022-09-28T15:14:02;15.60;99.90
15765;DHT22;7983;50.744;7.086;2022-09-28T15:16:32;15.60;99.90
15765;DHT22;7983;50.744;7.086;2022-09-28T15:21:40;15.70;99.90
15765;DHT22;7983;50.744;7.086;2022-09-28T15:24:28;15.70;99.90
15765;DHT22;7983;50.744;7.086;2022-09-28T15:26:56;15.80;99.90
15765;DHT22;7983;50.744;7.086;2022-09-28T15:29:22;15.80;99.90
15765;DHT22;7983;50.744;7.086;2022-09-28T15:31:48;15.80;99.90
15765;DHT22;7983;50.744;7.086;2022-09-28T15:37:10;15.80;99.90
15765;DHT22;7983;50.744;7.086;2022-09-28T15:39:36;15.80;99.90
15765;DHT22;7983;50.744;7.086;2022-09-28T15:42:02;15.70;99.90
15765;DHT22;7983;50.744;7.086;2022-09-28T15:44:30;15.70;99.90
15765;DHT22;7983;50.744;7.086;2022-09-28T15:47:14;15.70;99.90
15765;DHT22;7983;50.744;7.086;2022-09-28T15:49:42;15.70;99.90
15765;DHT22;7983;50.744;7.086;2022-09-28T15:52:45;15.70;99.90
15765;DHT22;7983;50.744;7.086;2022-09-28T15:55:18;15.70;99.90
15765;DHT22;7983;50.744;7.086;2022-09-28T15:57:45;15.60;99.90
15765;DHT22;7983;50.744;7.086;2022-09-28T16:00:24;15.60;99.90
15765;DHT22;7983;50.744;7.086;2022-09-28T16:11:24;15.50;99.90
15765;DHT22;7983;50.744;7.086;2022-09-28T16:14:19;15.40;99.90
15765;DHT22;7983;50.744;7.086;2022-09-28T16:16:50;15.30;99.90
15765;DHT22;7983;50.744;7.086;2022-09-28T16:21:50;14.80;99.90
15765;DHT22;7983;50.744;7.086;2022-09-28T16:24:31;14.50;99.90
15765;DHT22;7983;50.744;7.086;2022-09-28T16:27:01;14.30;99.90
15765;DHT22;7983;50.744;7.086;2022-09-28T16:29:33;14.10;99.90
15765;DHT22;7983;50.744;7.086;2022-09-28T16:37:40;13.50;99.90
15765;DHT22;7983;50.744;7.086;2022-09-28T16:40:09;13.40;99.90
15765;DHT22;7983;50.744;7.086;2022-09-28T16:42:35;13.30;99.90
15765;DHT22;7983;50.744;7.086;2022-09-28T16:45:05;13.20;99.90
15765;DHT22;7983;50.744;7.086;2022-09-28T16:47:35;13.20;99.90
15765;DHT22;7983;50.744;7.086;2022-09-28T16:50:05;13.00;99.90
15765;DHT22;7983;50.744;7.086;2022-09-28T16:52:31;12.90;99.90
15765;DHT22;7983;50.744;7.086;2022-09-28T16:55:16;12.80;99.90
15765;DHT22;7983;50.744;7.086;2022-09-28T16:57:45;12.60;99.90
15765;DHT22;7983;50.744;7.086;2022-09-28T17:00:22;12.60;99.90
15765;DHT22;7983;50.744;7.086;2022-09-28T17:02:49;12.50;99.90
15765;DHT22;7983;50.744;7.086;2022-09-28T17:05:16;12.40;99.90
15765;DHT22;7983;50.744;7.086;2022-09-28T17:07:46;12.30;99.90
15765;DHT22;7983;50.744;7.086;2022-09-28T17:13:11;12.30;99.90
15765;DHT22;7983;50.744;7.086;2022-09-28T17:15:39;12.20;99.90
15765;DHT22;7983;50.744;7.086;2022-09-28T17:18:05;12.20;99.90
15765;DHT22;7983;50.744;7.086;2022-09-28T17:20:34;12.20;99.90
15765;DHT22;7983;50.744;7.086;2022-09-28T17:23:02;12.20;99.90
15765;DHT22;7983;50.744;7.086;2022-09-28T17:25:28;12.20;99.90
15765;DHT22;7983;50.744;7.086;2022-09-28T17:27:56;12.30;99.90
15765;DHT22;7983;50.744;7.086;2022-09-28T17:30:25;12.30;99.90
15765;DHT22;7983;50.744;7.086;2022-09-28T17:32:50;12.30;99.90
15765;DHT22;7983;50.744;7.086;2022-09-28T17:35:19;12.30;99.90
15765;DHT22;7983;50.744;7.086;2022-09-28T17:37:46;12.30;99.90
15765;DHT22;7983;50.744;7.086;2022-09-28T17:40:28;12.30;99.90
15765;DHT22;7983;50.744;7.086;2022-09-28T17:42:55;12.30;99.90
15765;DHT22;7983;50.744;7.086;2022-09-28T17:45:22;12.40;99.90
15765;DHT22;7983;50.744;7.086;2022-09-28T17:47:51;12.40;99.90
15765;DHT22;7983;50.744;7.086;2022-09-28T17:50:31;12.40;99.90
15765;DHT22;7983;50.744;7.086;2022-09-28T17:52:57;12.40;99.90
15765;DHT22;7983;50.744;7.086;2022-09-28T17:55:29;12.40;99.90
15765;DHT22;7983;50.744;7.086;2022-09-28T17:57:57;12.40;99.90
15765;DHT22;7983;50.744;7.086;2022-09-28T18:00:23;12.40;99.90
15765;DHT22;7983;50.744;7.086;2022-09-28T18:02:54;12.40;99.90
15765;DHT22;7983;50.744;7.086;2022-09-28T18:05:20;12.40;99.90
15765;DHT22;7983;50.744;7.086;2022-09-28T18:07:47;12.50;99.90
15765;DHT22;7983;50.744;7.086;2022-09-28T18:10:21;12.50;99.90
15765;DHT22;7983;50.744;7.086;2022-09-28T18:12:49;12.40;99.90
15765;DHT22;7983;50.744;7.086;2022-09-28T18:15:18;12.40;99.90
15765;DHT22;7983;50.744;7.086;2022-09-28T18:17:46;12.40;99.90
15765;DHT22;7983;50.744;7.086;2022-09-28T18:20:13;12.40;99.90
15765;DHT22;7983;50.744;7.086;2022-09-28T18:22:39;12.40;99.90
15765;DHT22;7983;50.744;7.086;2022-09-28T18:25:05;12.40;99.90
15765;DHT22;7983;50.744;7.086;2022-09-28T18:27:33;12.40;99.90
15765;DHT22;7983;50.744;7.086;2022-09-28T18:30:03;12.50;99.90
15765;DHT22;7983;50.744;7.086;2022-09-28T18:32:29;12.40;99.90
15765;DHT22;7983;50.744;7.086;2022-09-28T18:34:55;12.50;99.90
15765;DHT22;7983;50.744;7.086;2022-09-28T18:37:23;12.50;99.90
15765;DHT22;7983;50.744;7.086;2022-09-28T18:39:49;12.40;99.90
15765;DHT22;7983;50.744;7.086;2022-09-28T18:42:16;12.50;99.90
15765;DHT22;7983;50.744;7.086;2022-09-28T18:44:43;12.40;99.90
15765;DHT22;7983;50.744;7.086;2022-09-28T18:47:12;12.40;99.90
15765;DHT22;7983;50.744;7.086;2022-09-28T18:49:39;12.50;99.90
15765;DHT22;7983;50.744;7.086;2022-09-28T18:52:08;12.40;99.90
15765;DHT22;7983;50.744;7.086;2022-09-28T19:06:02;12.50;99.90
15765;DHT22;7983;50.744;7.086;2022-09-28T19:08:34;12.70;99.90
15765;DHT22;7983;50.744;7.086;2022-09-28T19:11:12;12.70;99.90
15765;DHT22;7983;50.744;7.086;2022-09-28T19:13:38;12.70;99.90
15765;DHT22;7983;50.744;7.086;2022-09-28T19:16:15;12.60;99.90
15765;DHT22;7983;50.744;7.086;2022-09-28T19:18:43;12.60;99.90
15765;DHT22;7983;50.744;7.086;2022-09-28T19:21:11;12.50;99.90
15765;DHT22;7983;50.744;7.086;2022-09-28T19:23:37;12.50;99.90
15765;DHT22;7983;50.744;7.086;2022-09-28T19:26:04;12.40;99.90
15765;DHT22;7983;50.744;7.086;2022-09-28T19:28:31;12.40;99.90
15765;DHT22;7983;50.744;7.086;2022-09-28T19:31:04;12.30;99.90
15765;DHT22;7983;50.744;7.086;2022-09-28T19:33:30;12.30;99.90
15765;DHT22;7983;50.744;7.086;2022-09-28T19:35:57;12.30;99.90
15765;DHT22;7983;50.744;7.086;2022-09-28T19:38:22;12.20;99.90
15765;DHT22;7983;50.744;7.086;2022-09-28T19:40:48;12.20;99.90
15765;DHT22;7983;50.744;7.086;2022-09-28T19:43:14;12.20;99.90
15765;DHT22;7983;50.744;7.086;2022-09-28T19:45:40;12.20;99.90
15765;DHT22;7983;50.744;7.086;2022-09-28T19:48:05;12.20;99.90
15765;DHT22;7983;50.744;7.086;2022-09-28T19:50:31;12.20;99.90
15765;DHT22;7983;50.744;7.086;2022-09-28T19:52:57;12.20;99.90
15765;DHT22;7983;50.744;7.086;2022-09-28T19:55:26;12.20;99.90
15765;DHT22;7983;50.744;7.086;2022-09-28T19:58:02;12.20;99.90
15765;DHT22;7983;50.744;7.086;2022-09-28T20:00:27;12.10;99.90
15765;DHT22;7983;50.744;7.086;2022-09-28T20:02:55;12.10;99.90
15765;DHT22;7983;50.744;7.086;2022-09-28T20:05:24;12.10;99.90
15765;DHT22;7983;50.744;7.086;2022-09-28T20:07:50;12.10;99.90
15765;DHT22;7983;50.744;7.086;2022-09-28T20:10:16;12.10;99.90
15765;DHT22;7983;50.744;7.086;2022-09-28T20:12:44;12.00;99.90
15765;DHT22;7983;50.744;7.086;2022-09-28T20:15:11;12.10;99.90
15765;DHT22;7983;50.744;7.086;2022-09-28T20:17:37;12.10;99.90